Time;durP1;ratioP1;P1;durP2;ratioP2;P2;SDS_P1;SDS_P2;PMS_P1;PMS_P2;Temp;Humidity;BMP_temperature;BMP_pressure;BME280_temperature;BME280_humidity;BME280_pressure;Samples;Min_cycle;Max_cycle;Signal;HPM_P1;HPM_P2
2022/07/11 00:02:24;;;;;;;4.10;1.37;;;;;;;17.90;49.57;98371.06;4515489;31;20166;-82
2022/07/11 00:11:12;;;;;;;3.25;1.30;;;;;;;17.77;49.82;98362.37;4503374;31;20098;-82
2022/07/11 00:13:39;;;;;;;3.33;1.40;;;;;;;17.29;51.37;98369.00;4503250;31;20092;-82
2022/07/11 00:19:48;;;;;;;3.03;1.42;;;;;;;17.14;52.10;98372.63;4503085;31;20594;-82
2022/07/11 00:22:15;;;;;;;4.97;1.30;;;;;;;17.06;52.42;98370.50;4502990;31;20171;-82
2022/07/11 00:29:03;;;;;;;2.33;1.33;;;;;;;18.12;49.57;98374.81;4502943;31;20122;-82
2022/07/11 00:31:30;;;;;;;3.00;1.52;;;;;;;17.45;51.40;98367.09;4503138;31;20454;-82
2022/07/11 00:33:58;;;;;;;3.42;1.30;;;;;;;16.71;53.41;98363.16;4502984;31;20159;-82
2022/07/11 00:39:46;;;;;;;7.22;1.50;;;;;;;17.24;52.09;98366.72;4502874;31;20130;-82
2022/07/11 00:42:16;;;;;;;2.45;1.20;;;;;;;17.48;51.67;98369.50;4502773;31;20182;-82
2022/07/11 00:49:02;;;;;;;5.80;1.45;;;;;;;17.45;52.46;98364.47;4502886;31;20141;-82
2022/07/11 00:51:30;;;;;;;3.58;1.20;;;;;;;17.16;53.84;98360.31;4502788;31;20435;-82
2022/07/11 00:53:58;;;;;;;2.33;1.33;;;;;;;17.80;52.24;98371.78;4502672;31;20146;-82
2022/07/11 01:00:07;;;;;;;3.17;1.37;;;;;;;17.55;53.28;98370.78;4502754;31;20133;-82
2022/07/11 01:02:34;;;;;;;3.25;1.30;;;;;;;17.30;54.29;98368.06;4502414;31;20106;-82
2022/07/11 01:11:22;;;;;;;2.50;1.30;;;;;;;18.55;50.57;98371.84;4502366;31;20152;-82
2022/07/11 01:13:49;;;;;;;3.33;1.30;;;;;;;18.25;51.34;98375.66;4501088;31;20134;-82
2022/07/11 01:19:56;;;;;;;;;;;;;;;17.85;52.92;98367.06;4503930;31;20148;-82
2022/07/11 01:22:24;;;;;;;2.80;1.27;;;;;;;17.68;53.25;98362.13;4504586;31;20321;-82
2022/07/11 01:28:59;;;;;;;3.00;1.20;;;;;;;16.77;56.72;98367.97;4504586;31;20109;-82
2022/07/11 01:38:34;;;;;;;1.67;1.00;;;;;;;16.21;59.42;98371.41;4479775;31;20120;-82
2022/07/11 01:41:02;;;;;;;2.67;1.30;;;;;;;16.90;57.17;98369.78;4504435;31;20156;-82
2022/07/11 01:43:29;;;;;;;3.25;1.05;;;;;;;17.14;56.47;98370.84;4504692;31;20094;-82
2022/07/11 01:49:37;;;;;;;3.25;1.85;;;;;;;16.70;57.55;98356.25;4504865;31;20115;-82
2022/07/11 01:52:05;;;;;;;2.80;1.33;;;;;;;16.78;57.43;98363.56;4504496;31;20151;-82
2022/07/11 01:54:31;;;;;;;2.42;1.20;;;;;;;17.41;55.34;98367.38;4503516;31;20106;-82
2022/07/11 01:56:58;;;;;;;3.08;1.30;;;;;;;17.42;55.49;98364.66;4504632;31;20088;-82
2022/07/11 01:59:25;;;;;;;3.83;1.20;;;;;;;17.53;54.98;98364.78;4504402;31;20153;-82
2022/07/11 02:01:52;;;;;;;2.08;1.27;;;;;;;17.23;55.56;98361.59;4504541;31;20458;-82
2022/07/11 02:04:20;;;;;;;3.85;1.33;;;;;;;16.87;56.86;98365.59;4504556;31;20068;-82
2022/07/11 02:10:15;;;;;;;2.62;1.33;;;;;;;16.40;59.08;98368.53;4504626;31;20122;-82
2022/07/11 02:12:42;;;;;;;3.85;1.30;;;;;;;17.03;56.81;98366.31;4503470;31;20134;-82
2022/07/11 02:19:01;;;;;;;;;;;;;;;16.51;58.21;98350.50;4504679;31;20098;-82
2022/07/11 02:21:28;;;;;;;4.82;1.87;;;;;;;16.45;58.53;98362.09;4504332;31;20009;-82
2022/07/11 02:23:55;;;;;;;5.47;1.10;;;;;;;15.34;62.63;98355.72;4504263;31;20453;-82
2022/07/11 02:30:03;;;;;;;3.67;1.55;;;;;;;14.46;66.28;98358.84;4504152;31;20408;-82
2022/07/11 02:32:30;;;;;;;2.37;1.10;;;;;;;17.06;57.38;98355.69;4503329;31;20119;-82
2022/07/11 02:41:19;;;;;;;2.10;1.25;;;;;;;16.64;57.72;98361.81;4503981;31;20074;-82
2022/07/11 02:43:46;;;;;;;2.72;1.30;;;;;;;15.74;60.98;98374.25;4504170;31;20108;-82
2022/07/11 02:49:53;;;;;;;4.72;1.40;;;;;;;16.65;58.17;98371.28;4504204;31;20132;-82
2022/07/11 02:52:21;;;;;;;3.30;1.40;;;;;;;17.49;54.87;98375.53;4503875;31;20120;-82
2022/07/11 02:58:56;;;;;;;2.45;1.12;;;;;;;17.81;53.47;98378.66;4503889;31;20137;-82
2022/07/11 03:01:23;;;;;;;6.53;1.50;;;;;;;17.91;52.82;98380.56;4504229;31;20092;-82
2022/07/11 03:03:50;;;;;;;2.80;1.20;;;;;;;17.79;53.39;98373.56;4504029;31;20076;-82
2022/07/11 03:09:38;;;;;;;4.68;1.40;;;;;;;16.93;56.05;98365.22;4504085;31;20122;-82
2022/07/11 03:12:05;;;;;;;5.03;1.30;;;;;;;17.24;55.27;98365.88;4503878;31;20510;-82
2022/07/11 03:14:32;;;;;;;3.53;1.30;;;;;;;17.71;54.17;98372.38;4504114;31;20359;-82
2022/07/11 03:16:59;;;;;;;3.53;1.45;;;;;;;17.56;54.20;98372.44;4503974;31;20177;-82
2022/07/11 03:19:26;;;;;;;2.60;1.48;;;;;;;16.88;56.35;98363.84;4503951;31;20366;-82
2022/07/11 03:21:53;;;;;;;3.47;1.42;;;;;;;17.52;54.77;98370.13;4503879;31;20427;-82
2022/07/11 03:24:20;;;;;;;3.75;2.03;;;;;;;17.08;56.26;98365.19;4503804;31;20430;-82
2022/07/11 03:30:27;;;;;;;4.78;1.30;;;;;;;17.33;55.08;98360.91;4503522;31;20377;-82
2022/07/11 03:32:54;;;;;;;4.93;1.50;;;;;;;17.35;54.41;98364.25;4503389;31;20167;-82
2022/07/11 03:39:05;;;;;;;4.28;1.52;;;;;;;17.42;54.35;98364.66;4503581;31;20112;-82
2022/07/11 03:41:33;;;;;;;2.45;1.30;;;;;;;17.75;53.41;98364.22;4515104;31;20482;-82
2022/07/11 03:43:59;;;;;;;4.12;1.30;;;;;;;17.39;54.80;98369.25;4502918;31;20456;-82
2022/07/11 03:50:07;;;;;;;3.65;1.27;;;;;;;18.07;52.84;98377.72;4503242;31;20115;-82
2022/07/11 03:52:34;;;;;;;3.05;1.45;;;;;;;18.71;51.13;98373.28;4503178;31;20158;-82
2022/07/11 04:01:34;;;;;;;5.07;1.40;;;;;;;18.33;51.44;98375.13;4503449;31;20139;-82
2022/07/11 04:04:01;;;;;;;3.78;1.12;;;;;;;17.51;53.95;98382.31;4503209;31;20544;-82
2022/07/11 04:09:44;;;;;;;2.40;1.10;;;;;;;19.36;49.92;98380.81;4503216;31;20098;-82
2022/07/11 04:12:11;;;;;;;1.95;1.08;;;;;;;20.29;46.79;98386.06;4503066;31;20562;-82
2022/07/11 04:18:56;;;;;;;5.87;1.10;;;;;;;21.00;44.71;98392.75;4503212;31;20443;-82
2022/07/11 04:21:23;;;;;;;1.48;1.05;;;;;;;21.77;42.84;98392.59;4503505;31;20132;-82
2022/07/11 04:23:50;;;;;;;2.25;1.30;;;;;;;21.21;43.80;98402.47;4503473;31;20148;-82
2022/07/11 04:29:58;;;;;;;3.90;1.35;;;;;;;22.89;40.86;98397.12;4503300;31;20119;-82
2022/07/11 04:32:24;;;;;;;3.28;1.42;;;;;;;23.16;39.47;98390.38;4503402;31;20128;-82
2022/07/11 04:38:54;;;;;;;3.78;1.15;;;;;;;23.51;38.63;98393.34;4502835;31;20161;-82
2022/07/11 04:41:21;;;;;;;3.67;1.45;;;;;;;25.20;35.83;98395.09;4502399;31;20103;-82
2022/07/11 04:43:48;;;;;;;2.75;1.10;;;;;;;24.32;36.57;98388.53;4502535;31;20465;-83
2022/07/11 04:49:56;;;;;;;3.60;1.20;;;;;;;24.37;36.48;98402.13;4503862;31;20105;-84
2022/07/11 04:55:52;;;;;;;3.78;1.30;;;;;;;23.57;38.27;98410.38;4506242;31;20096;-84
2022/07/11 04:58:19;;;;;;;5.07;1.35;;;;;;;22.49;39.84;98416.31;4508440;31;20146;-84
2022/07/11 05:00:46;;;;;;;2.62;1.30;;;;;;;22.52;40.13;98421.28;4508391;31;20856;-84
2022/07/11 05:03:14;;;;;;;3.33;1.20;;;;;;;22.94;39.59;98410.69;4507900;31;20103;-85
2022/07/11 05:09:11;;;;;;;7.87;1.95;;;;;;;23.20;38.76;98413.66;4506296;31;20118;-84
2022/07/11 05:11:37;;;;;;;3.25;1.20;;;;;;;22.55;40.06;98424.66;4506713;31;20494;-84
2022/07/11 05:14:04;;;;;;;3.85;1.10;;;;;;;22.07;41.43;98420.78;4505874;31;20437;-82
2022/07/11 05:20:12;;;;;;;6.28;1.27;;;;;;;22.69;40.32;98433.00;4507350;31;20472;-83
2022/07/11 05:22:39;;;;;;;3.22;1.30;;;;;;;23.90;38.33;98440.75;4507805;31;20115;-83
2022/07/11 05:29:00;;;;;;;6.60;1.50;;;;;;;22.02;40.38;98435.25;4509113;31;20143;-84
2022/07/11 05:31:27;;;;;;;3.70;1.10;;;;;;;23.57;38.13;98434.91;4510630;31;20088;-84
2022/07/11 05:33:54;;;;;;;4.57;1.58;;;;;;;23.42;37.85;98431.03;4510269;31;20096;-84
2022/07/11 05:39:50;;;;;;;3.35;1.17;;;;;;;24.08;36.33;98432.97;4512715;31;20135;-83
2022/07/11 05:42:17;;;;;;;2.85;1.08;;;;;;;23.87;36.99;98441.03;4509911;31;20452;-85
2022/07/11 05:48:59;;;;;;;4.80;1.40;;;;;;;25.13;35.06;98440.72;4505303;31;20066;-83
2022/07/11 05:55:07;;;;;;;2.62;1.20;;;;;;;25.45;33.41;98440.25;4511740;31;20080;-82
2022/07/11 05:57:38;;;;;;;3.42;1.48;;;;;;;24.01;35.31;98447.69;4508940;31;20075;-83
2022/07/11 06:00:05;;;;;;;5.82;2.08;;;;;;;24.74;35.03;98459.34;4509049;31;20084;-83
2022/07/11 06:02:32;;;;;;;7.75;1.45;;;;;;;25.00;34.57;98463.00;4510652;31;20095;-82
2022/07/11 06:08:56;;;;;;;4.53;1.20;;;;;;;21.77;40.17;98452.19;4508152;31;20104;-83
2022/07/11 06:11:23;;;;;;;2.15;1.00;;;;;;;21.14;41.74;98438.03;4504458;31;20135;-84
2022/07/11 06:13:50;;;;;;;4.95;1.20;;;;;;;22.21;40.41;98453.78;4507046;31;20143;-85
2022/07/11 06:20:05;;;;;;;2.65;1.10;;;;;;;22.17;40.05;98444.50;4503461;31;20476;-81
2022/07/11 06:22:32;;;;;;;1.85;0.95;;;;;;;23.24;38.42;98454.53;4503626;31;20156;-81
2022/07/11 06:29:04;;;;;;;5.43;1.60;;;;;;;24.17;36.38;98459.31;4503728;31;20113;-81
2022/07/11 06:31:31;;;;;;;2.42;1.20;;;;;;;23.14;38.26;98448.41;4503707;31;20099;-80
2022/07/11 06:33:58;;;;;;;4.32;1.10;;;;;;;22.35;38.72;98450.84;4502133;31;20449;-82
2022/07/11 06:39:54;;;;;;;4.30;1.17;;;;;;;23.15;38.12;98446.63;4503622;31;20242;-82
2022/07/11 06:42:21;;;;;;;2.25;1.10;;;;;;;23.74;37.05;98457.12;4503509;31;20126;-82
2022/07/11 06:49:03;;;;;;;4.95;1.10;;;;;;;22.73;38.13;98447.56;4503271;31;20098;-82
2022/07/11 06:51:30;;;;;;;;;;;;;;;22.06;40.04;98442.75;4503842;31;20100;-82
2022/07/11 06:53:57;;;;;;;4.00;1.20;;;;;;;21.32;41.22;98447.09;4503544;31;20046;-81
2022/07/11 06:59:52;;;;;;;3.97;1.20;;;;;;;21.78;40.23;98456.47;4503567;31;20152;-82
2022/07/11 07:02:20;;;;;;;3.20;1.12;;;;;;;21.53;40.49;98453.22;4503144;31;20088;-82
2022/07/11 07:11:25;;;;;;;2.87;1.10;;;;;;;23.03;38.18;98449.34;4503244;31;20096;-83
2022/07/11 07:13:52;;;;;;;3.75;1.33;;;;;;;23.88;37.07;98463.78;4503334;31;20163;-83
2022/07/11 07:20:00;;;;;;;25.75;2.67;;;;;;;24.47;35.08;98453.06;4504076;31;20119;-82
2022/07/11 07:22:27;;;;;;;4.18;1.62;;;;;;;24.73;35.85;98461.16;4502960;31;20088;-82
2022/07/11 07:31:23;;;;;;;5.78;1.17;;;;;;;24.25;34.50;98450.72;4504476;31;20108;-81
2022/07/11 07:33:50;;;;;;;5.97;1.30;;;;;;;23.95;34.65;98446.44;4503286;31;20106;-81
2022/07/11 07:36:17;;;;;;;4.82;1.40;;;;;;;24.04;35.69;98450.06;4503152;31;20247;-81
2022/07/11 07:38:47;;;;;;;4.93;1.30;;;;;;;24.45;34.45;98447.06;4502383;31;20143;-83
2022/07/11 07:41:15;;;;;;;4.03;1.30;;;;;;;25.64;32.96;98451.50;4504003;31;20103;-81
2022/07/11 07:43:42;;;;;;;6.35;1.65;;;;;;;25.13;33.27;98453.91;4514710;31;20410;-82
2022/07/11 07:46:10;;;;;;;3.70;1.00;;;;;;;25.07;33.17;98456.16;4503025;31;20171;-82
2022/07/11 07:48:38;;;;;;;4.00;1.20;;;;;;;25.50;33.22;98449.34;4503259;31;20092;-81
2022/07/11 07:51:05;;;;;;;4.53;1.40;;;;;;;24.92;33.53;98452.31;4503087;31;20150;-81
2022/07/11 07:53:32;;;;;;;5.03;1.40;;;;;;;24.97;33.78;98451.88;4503081;31;20104;-82
2022/07/11 07:55:59;;;;;;;7.20;1.25;;;;;;;25.42;33.27;98449.31;4503569;31;20115;-82
2022/07/11 07:58:26;;;;;;;6.93;1.75;;;;;;;25.77;33.39;98451.16;4504466;31;20196;-83
2022/07/11 08:03:39;;;;;;;3.85;1.15;;;;;;;25.76;31.77;98448.66;4504482;31;20076;-83
2022/07/11 08:06:06;;;;;;;4.18;1.27;;;;;;;25.16;32.33;98441.25;4504157;31;20478;-83
2022/07/11 08:08:33;;;;;;;10.52;1.42;;;;;;;25.41;33.02;98441.50;4506018;31;20112;-84
2022/07/11 08:11:05;;;;;;;6.57;1.35;;;;;;;25.87;33.29;98445.78;4505981;31;20112;-84
2022/07/11 08:13:52;;;;;;;13.82;2.20;;;;;;;25.04;32.22;98443.25;4504915;31;20079;-82
2022/07/11 08:16:19;;;;;;;3.12;1.25;;;;;;;;;;4503136;31;20172;-83
2022/07/11 08:18:46;;;;;;;2.17;1.00;;;;;;;24.80;34.24;98451.69;4503108;31;20496;-83
2022/07/11 08:21:13;;;;;;;3.47;1.45;;;;;;;23.80;35.41;98443.38;4503072;31;20158;-83
2022/07/11 08:23:40;;;;;;;2.80;1.10;;;;;;;24.38;35.30;98445.16;4503317;31;20105;-82
2022/07/11 08:26:07;;;;;;;8.20;1.37;;;;;;;23.74;35.72;98432.59;4503081;31;20163;-82
2022/07/11 08:28:34;;;;;;;9.57;1.73;;;;;;;24.05;35.56;98436.72;4503669;31;20114;-82
2022/07/11 08:31:01;;;;;;;5.85;1.40;;;;;;;23.93;35.95;98443.12;4504828;31;20084;-83
2022/07/11 08:33:28;;;;;;;4.37;1.30;;;;;;;24.27;34.89;98446.13;4504611;31;20088;-83
2022/07/11 08:35:55;;;;;;;4.12;1.40;;;;;;;24.22;35.64;98438.63;4504369;31;20100;-83
2022/07/11 08:38:22;;;;;;;6.05;1.40;;;;;;;24.68;34.40;98439.66;4505205;31;20100;-81
2022/07/11 08:40:50;;;;;;;23.87;2.22;;;;;;;23.96;35.44;98442.84;4503997;31;20093;-82
2022/07/11 08:43:22;;;;;;;3.53;1.20;;;;;;;24.32;34.83;98441.28;4504341;31;20099;-81
2022/07/11 08:45:50;;;;;;;14.82;1.70;;;;;;;24.40;34.50;98443.22;4504040;31;20115;-81
2022/07/11 08:48:18;;;;;;;10.75;1.50;;;;;;;24.23;34.19;98439.47;4504443;31;20110;-82
2022/07/11 08:50:45;;;;;;;13.00;1.55;;;;;;;23.67;34.89;98425.22;4503334;31;20450;-82
2022/07/11 08:53:13;;;;;;;7.62;1.20;;;;;;;23.29;36.24;98425.19;4504318;31;20446;-81
2022/07/11 08:56:37;;;;;;;6.00;1.17;;;;;;;24.29;33.57;98436.25;4516082;31;20168;-82
2022/07/11 08:59:04;;;;;;;5.15;1.40;;;;;;;25.39;32.87;98433.72;4504329;31;20102;-82
2022/07/11 09:01:34;;;;;;;5.72;1.30;;;;;;;25.06;33.30;98441.28;4504540;31;20098;-82
2022/07/11 09:04:01;;;;;;;5.78;1.50;;;;;;;25.22;33.38;98442.47;4517129;31;20585;-83
2022/07/11 09:06:29;;;;;;;9.88;1.52;;;;;;;25.25;33.16;98434.25;4510571;31;20084;-83
2022/07/11 09:09:00;;;;;;;9.63;1.67;;;;;;;24.49;34.44;98445.81;4512851;31;20068;-83
2022/07/11 09:11:28;;;;;;;6.37;1.25;;;;;;;24.90;33.66;98445.53;4511330;31;20819;-82
2022/07/11 09:13:55;;;;;;;4.90;1.30;;;;;;;25.03;33.33;98441.59;4507053;31;20146;-83
2022/07/11 09:16:28;;;;;;;5.72;1.40;;;;;;;24.76;34.34;98438.91;4516994;31;20159;-82
2022/07/11 09:18:58;;;;;;;4.90;1.20;;;;;;;25.16;34.29;98435.97;4508407;31;20052;-83
2022/07/11 09:26:56;;;;;;;4.18;1.27;;;;;;;25.61;32.27;98441.22;4508785;31;20171;-83
2022/07/11 09:29:27;;;;;;;5.62;1.20;;;;;;;26.30;31.66;98444.13;4509020;31;20096;-83
2022/07/11 09:31:54;;;;;;;2.28;1.10;;;;;;;26.24;31.62;98442.91;4508667;31;20506;-83
2022/07/11 09:34:26;;;;;;;2.87;1.20;;;;;;;26.45;30.47;98432.00;4507987;31;20163;-83
2022/07/11 09:36:55;;;;;;;4.57;1.05;;;;;;;26.23;31.50;98442.09;4512287;31;20090;-83
2022/07/11 09:39:27;;;;;;;8.05;1.30;;;;;;;25.94;31.63;98431.78;4515002;31;20077;-83
2022/07/11 09:41:54;;;;;;;3.35;1.10;;;;;;;24.68;32.90;98431.75;4509812;31;20072;-83
2022/07/11 09:44:27;;;;;;;5.72;1.17;;;;;;;24.94;33.22;98421.31;4509579;31;20147;-83
2022/07/11 09:46:56;;;;;;;5.40;1.58;;;;;;;25.33;32.51;98432.53;4508554;31;20118;-83
2022/07/11 09:49:34;;;;;;;3.50;1.30;;;;;;;24.72;33.67;98445.47;4507693;31;20091;-85
2022/07/11 09:52:17;;;;;;;4.12;1.10;;;;;;;24.59;33.74;98435.25;4505254;31;20092;-83
2022/07/11 09:54:59;;;;;;;3.70;0.90;;;;;;;25.93;32.92;98429.28;4517392;31;20092;-83
2022/07/11 09:57:30;;;;;;;4.03;1.20;;;;;;;25.79;32.24;98429.84;4505707;31;20107;-83
2022/07/11 10:00:22;;;;;;;7.28;1.23;;;;;;;27.21;30.40;98436.50;4506443;31;20060;-83
2022/07/11 10:02:49;;;;;;;6.82;1.75;;;;;;;28.43;29.47;98448.06;4508718;31;20140;-83
2022/07/11 10:05:17;;;;;;;6.93;1.33;;;;;;;26.68;31.46;98441.06;4505304;31;20398;-83
2022/07/11 10:07:44;;;;;;;5.35;1.33;;;;;;;26.76;30.36;98429.69;4506515;31;20091;-84
2022/07/11 10:10:11;;;;;;;6.55;1.20;;;;;;;27.24;29.88;98441.50;4508176;31;20814;-84
2022/07/11 10:12:39;;;;;;;4.07;1.20;;;;;;;27.39;30.24;98439.84;4508339;31;20084;-84
2022/07/11 10:15:08;;;;;;;4.55;1.12;;;;;;;25.67;31.41;98435.34;4509834;31;20148;-83
2022/07/11 10:17:35;;;;;;;3.20;1.10;;;;;;;25.61;31.64;98429.81;4511815;31;20182;-84
2022/07/11 10:20:12;;;;;;;3.37;1.10;;;;;;;26.63;31.34;98432.78;4507011;31;20144;-84
2022/07/11 10:22:45;;;;;;;4.47;1.20;;;;;;;27.43;29.76;98435.06;4504950;31;20060;-84
2022/07/11 10:25:37;;;;;;;2.70;1.10;;;;;;;27.05;30.46;98432.00;4507379;31;20112;-84
2022/07/11 10:28:25;;;;;;;4.22;1.10;;;;;;;26.56;31.03;98431.72;4499613;31;20469;-83
2022/07/11 10:30:59;;;;;;;3.35;0.88;;;;;;;27.09;29.49;98423.56;4505935;31;20104;-83
2022/07/11 10:33:28;;;;;;;4.93;1.70;;;;;;;26.37;29.49;98424.00;4506336;31;20469;-84
2022/07/11 10:35:58;;;;;;;13.77;1.42;;;;;;;25.96;30.47;98418.44;4509458;31;20126;-83
2022/07/11 10:38:25;;;;;;;5.12;1.37;;;;;;;24.91;32.77;98419.00;4512095;31;20097;-82
2022/07/11 10:40:56;;;;;;;5.95;1.27;;;;;;;24.87;33.90;98425.53;4512483;31;20064;-82
2022/07/11 10:43:36;;;;;;;3.20;1.33;;;;;;;23.65;36.09;98419.28;4513482;31;20049;-82
2022/07/11 10:46:08;;;;;;;7.05;1.23;;;;;;;22.87;37.38;98409.56;4511354;31;20165;-83
2022/07/11 10:49:09;;;;;;;4.37;1.30;;;;;;;23.89;36.53;98413.56;4513841;31;20075;-82
2022/07/11 10:52:04;;;;;;;3.95;1.25;;;;;;;24.40;35.19;98416.84;4507283;31;20087;-83
2022/07/11 10:55:05;;;;;;;2.85;1.05;;;;;;;24.37;35.49;98417.97;4506152;31;20084;-81
2022/07/11 10:57:41;;;;;;;11.73;1.45;;;;;;;24.59;35.49;98413.31;4502466;31;20088;-81
2022/07/11 11:00:15;;;;;;;14.25;2.25;;;;;;;24.95;34.56;98422.97;4515342;31;20092;-82
2022/07/11 11:03:08;;;;;;;4.12;1.33;;;;;;;24.34;35.04;98417.41;4502277;31;20118;-81
2022/07/11 11:05:48;;;;;;;7.40;1.33;;;;;;;24.70;34.40;98408.66;4502145;31;20516;-82
2022/07/11 11:08:30;;;;;;;12.32;1.58;;;;;;;25.45;33.60;98419.94;4503428;31;20490;-81
2022/07/11 11:10:59;;;;;;;3.20;0.80;;;;;;;25.08;32.90;98410.28;4503534;31;20195;-82
2022/07/11 11:13:27;;;;;;;1.65;0.98;;;;;;;25.54;32.75;98405.81;4503435;31;20106;-83
2022/07/11 11:15:55;;;;;;;1.55;0.75;;;;;;;25.55;31.29;98401.37;4501929;31;20127;-82
2022/07/11 11:18:25;;;;;;;1.98;1.00;;;;;;;23.58;34.03;98404.12;4503398;31;20072;-82
2022/07/11 11:21:01;;;;;;;2.97;1.10;;;;;;;24.56;33.36;98403.84;4503681;31;20099;-83
2022/07/11 11:23:31;;;;;;;2.75;1.00;;;;;;;25.20;32.51;98410.94;4502450;31;20120;-84
2022/07/11 11:26:08;;;;;;;4.25;1.15;;;;;;;24.43;33.44;98400.72;4503435;31;20088;-84
2022/07/11 11:28:36;;;;;;;2.60;0.93;;;;;;;23.50;36.01;98412.75;4504267;31;20151;-83
2022/07/11 11:31:05;;;;;;;23.90;2.45;;;;;;;24.16;35.02;98409.38;4504330;31;20388;-84
2022/07/11 11:33:34;;;;;;;3.15;1.10;;;;;;;23.11;37.10;98401.31;4497572;31;170193;-84
2022/07/11 11:36:03;;;;;;;3.05;1.10;;;;;;;22.68;38.49;98409.47;4504370;31;20106;-84
2022/07/11 11:38:33;;;;;;;3.62;1.08;;;;;;;22.84;38.31;98412.47;4504455;31;20106;-83
2022/07/11 11:41:00;;;;;;;6.72;1.30;;;;;;;23.69;37.14;98419.81;4503273;31;20445;-84
2022/07/11 11:43:28;;;;;;;6.28;1.12;;;;;;;23.94;36.53;98421.06;4503401;31;20109;-84
2022/07/11 11:45:55;;;;;;;0.85;0.80;;;;;;;24.47;34.81;98424.03;4501796;31;20441;-83
2022/07/11 11:48:36;;;;;;;3.40;0.90;;;;;;;24.96;34.34;98418.53;4505470;31;20084;-83
2022/07/11 11:51:04;;;;;;;9.57;1.15;;;;;;;24.67;34.61;98423.94;4503472;31;20122;-83
2022/07/11 11:53:39;;;;;;;9.98;1.50;;;;;;;24.42;34.28;98428.91;4505440;31;20792;-83
2022/07/11 11:56:15;;;;;;;2.33;1.10;;;;;;;23.36;35.73;98411.31;4503455;31;20113;-83
2022/07/11 11:58:43;;;;;;;6.63;1.30;;;;;;;23.97;35.47;98410.25;4502972;31;20088;-82
2022/07/11 12:01:11;;;;;;;3.28;1.10;;;;;;;24.03;35.71;98417.59;4502869;31;20190;-83
2022/07/11 12:03:53;;;;;;;3.47;1.10;;;;;;;23.69;36.79;98413.72;4502483;31;20455;-83
2022/07/11 12:06:26;;;;;;;3.15;1.08;;;;;;;24.10;35.49;98409.94;4502813;31;20411;-84
2022/07/11 12:09:00;;;;;;;3.17;1.20;;;;;;;25.30;33.52;98409.03;4503019;31;20387;-83
2022/07/11 12:11:27;;;;;;;2.30;0.90;;;;;;;25.68;32.76;98405.28;4502664;31;20081;-84
2022/07/11 12:13:59;;;;;;;2.78;1.05;;;;;;;25.99;32.09;98406.72;4515440;31;20138;-84
2022/07/11 12:16:42;;;;;;;3.08;0.90;;;;;;;26.47;30.23;98411.50;4503325;31;20088;-84
2022/07/11 12:19:19;;;;;;;2.83;1.00;;;;;;;25.13;32.64;98403.75;4501860;31;20081;-83
2022/07/11 12:21:47;;;;;;;23.00;2.87;;;;;;;24.39;34.07;98408.09;4502856;31;20088;-83
2022/07/11 12:24:21;;;;;;;3.83;1.12;;;;;;;25.06;33.19;98417.53;4502418;31;20084;-84
2022/07/11 12:26:48;;;;;;;3.72;1.40;;;;;;;25.27;32.10;98416.44;4502552;31;20107;-83
2022/07/11 12:29:22;;;;;;;3.15;1.02;;;;;;;24.97;32.49;98410.47;4502705;31;20143;-82
2022/07/11 12:31:57;;;;;;;1.80;1.12;;;;;;;23.95;34.28;98410.38;4502676;31;20115;-83
2022/07/11 12:34:32;;;;;;;2.85;1.10;;;;;;;23.50;35.30;98406.59;4503275;31;20163;-83
2022/07/11 12:37:03;;;;;;;2.33;1.30;;;;;;;24.94;33.28;98402.03;4503679;31;20108;-82
2022/07/11 12:39:31;;;;;;;1.70;1.00;;;;;;;24.74;33.17;98409.19;4503858;31;20135;-83
2022/07/11 12:42:00;;;;;;;3.97;0.93;;;;;;;24.53;34.19;98428.72;4514537;31;20111;-83
2022/07/11 12:47:17;;;;;;;4.75;1.20;;;;;;;23.91;35.08;98410.78;4502332;31;20104;-83
2022/07/11 12:49:46;;;;;;;2.30;1.10;;;;;;;25.10;33.83;98396.97;4501316;31;20564;-84
2022/07/11 12:52:14;;;;;;;6.28;1.23;;;;;;;25.20;32.91;98400.37;4501435;31;20152;-83
2022/07/11 12:54:41;;;;;;;3.40;0.95;;;;;;;25.95;30.87;98395.63;4502309;31;20095;-83
2022/07/11 12:57:10;;;;;;;4.72;1.35;;;;;;;25.75;31.79;98402.06;4502261;31;20505;-82
2022/07/11 12:59:39;;;;;;;1.45;0.98;;;;;;;26.39;30.03;98408.84;4502155;31;20103;-82
2022/07/11 13:02:13;;;;;;;2.65;1.10;;;;;;;26.36;30.37;98407.28;4500870;31;20119;-82
2022/07/11 13:04:47;;;;;;;4.72;1.23;;;;;;;25.99;30.03;98404.06;4502110;31;20159;-83
2022/07/11 13:10:27;;;;;;;2.25;1.10;;;;;;;26.51;29.26;98397.00;4501915;31;20080;-83
2022/07/11 13:13:28;;;;;;;17.02;1.70;;;;;;;26.33;29.41;98389.06;4502529;31;20104;-87
2022/07/11 13:15:55;;;;;;;4.05;1.40;;;;;;;26.69;28.72;98399.53;4502796;31;20509;-87
2022/07/11 13:18:23;;;;;;;3.97;1.10;;;;;;;27.30;28.47;98395.78;4504203;31;20083;-88
2022/07/11 13:20:50;;;;;;;3.70;1.27;;;;;;;26.85;28.83;98381.09;4503880;31;20076;-88
2022/07/11 13:23:17;;;;;;;4.53;1.15;;;;;;;26.83;28.86;98384.87;4504200;31;20111;-86
2022/07/11 13:25:44;;;;;;;5.80;1.30;;;;;;;26.26;28.74;98364.22;4504097;31;20147;-87
2022/07/11 13:28:11;;;;;;;2.25;1.20;;;;;;;25.24;31.22;98382.41;4503966;31;20166;-86
2022/07/11 13:30:39;;;;;;;2.87;1.10;;;;;;;24.86;31.81;98375.53;4504102;31;20114;-87
2022/07/11 13:33:25;;;;;;;;;;;;;;;25.28;32.04;98376.66;4504551;31;20154;-88
2022/07/11 13:35:52;;;;;;;2.58;1.33;;;;;;;25.04;31.78;98369.34;4503722;31;20361;-89
2022/07/11 13:38:20;;;;;;;2.70;1.10;;;;;;;25.47;30.95;98369.59;4504300;31;20120;-88
2022/07/11 13:40:47;;;;;;;3.53;1.15;;;;;;;26.18;30.07;98361.56;4504080;31;20088;-87
2022/07/11 13:43:14;;;;;;;5.60;1.52;;;;;;;26.42;29.67;98363.53;4503690;31;20126;-88
2022/07/11 13:45:44;;;;;;;3.15;0.95;;;;;;;25.71;29.84;98359.25;4503973;31;20100;-87
2022/07/11 13:48:11;;;;;;;4.78;1.60;;;;;;;25.52;30.33;98369.94;4503981;31;20088;-87
2022/07/11 13:50:38;;;;;;;5.93;1.40;;;;;;;25.44;30.65;98361.97;4503962;31;20587;-87
2022/07/11 13:53:06;;;;;;;11.80;1.80;;;;;;;25.21;30.64;98353.69;4503835;31;20438;-86
2022/07/11 13:55:33;;;;;;;5.87;1.40;;;;;;;25.16;31.31;98362.03;4503684;31;20143;-87
2022/07/11 13:58:00;;;;;;;2.60;1.42;;;;;;;25.48;30.54;98360.69;4503821;31;20088;-87
2022/07/11 14:00:29;;;;;;;4.65;1.20;;;;;;;26.32;30.13;98360.16;4504605;31;20493;-88
2022/07/11 14:02:56;;;;;;;5.50;1.40;;;;;;;26.71;29.27;98356.06;4503751;31;20474;-87
2022/07/11 14:05:24;;;;;;;4.30;1.40;;;;;;;27.16;28.75;98351.41;4515733;31;20447;-87
2022/07/11 14:07:52;;;;;;;6.60;1.48;;;;;;;26.69;29.93;98357.19;4503844;31;20601;-88
2022/07/11 14:10:19;;;;;;;5.87;1.58;;;;;;;26.97;28.74;98340.06;4503379;31;20145;-88
2022/07/11 14:12:54;;;;;;;5.45;1.20;;;;;;;27.15;28.38;98342.62;4503873;31;20454;-88
2022/07/11 14:15:21;;;;;;;8.45;1.37;;;;;;;26.43;29.52;98342.22;4503652;31;20494;-90
2022/07/11 14:17:48;;;;;;;5.80;1.40;;;;;;;26.27;30.38;98342.13;4503399;31;20102;-89
2022/07/11 14:20:15;;;;;;;5.85;1.50;;;;;;;25.44;31.03;98325.81;4503689;31;20159;-89
2022/07/11 14:22:43;;;;;;;5.97;1.25;;;;;;;25.70;31.21;98335.62;4503747;31;20091;-87
2022/07/11 14:25:09;;;;;;;2.87;1.20;;;;;;;25.64;31.04;98337.88;4503487;31;20147;-87
2022/07/11 14:27:37;;;;;;;3.40;1.20;;;;;;;25.38;31.62;98335.16;4502718;31;20144;-88
2022/07/11 14:30:07;;;;;;;5.65;1.40;;;;;;;26.39;30.00;98335.59;4502371;31;20105;-87
2022/07/11 14:32:35;;;;;;;4.62;1.40;;;;;;;26.05;30.25;98322.31;4503747;31;20099;-87
2022/07/11 14:35:02;;;;;;;4.00;1.20;;;;;;;25.48;31.35;98332.44;4503524;31;20122;-86
2022/07/11 14:37:29;;;;;;;1.50;1.10;;;;;;;24.96;30.35;98334.06;4503293;31;20572;-87
2022/07/11 14:39:56;;;;;;;5.85;1.42;;;;;;;24.46;30.87;98337.16;4503515;31;20163;-88
2022/07/11 14:42:23;;;;;;;3.72;1.30;;;;;;;25.60;29.95;98336.50;4503277;31;20107;-88
2022/07/11 14:45:08;;;;;;;5.32;1.40;;;;;;;25.65;29.88;98339.53;4503448;31;20114;-87
2022/07/11 14:47:35;;;;;;;1.83;1.20;;;;;;;25.44;30.83;98327.62;4503608;31;20362;-88
2022/07/11 14:50:03;;;;;;;4.78;1.20;;;;;;;25.02;30.97;98341.44;4503571;31;20092;-86
2022/07/11 14:52:31;;;;;;;1.95;1.08;;;;;;;25.30;31.20;98329.81;4503106;31;20225;-86
2022/07/11 14:54:58;;;;;;;7.80;1.40;;;;;;;25.87;29.78;98329.47;4503495;31;20096;-88
2022/07/11 14:57:26;;;;;;;3.50;1.27;;;;;;;26.19;29.52;98319.09;4503497;31;20450;-87
2022/07/11 14:59:53;;;;;;;3.60;1.20;;;;;;;26.29;29.18;98331.37;4503221;31;20096;-87
2022/07/11 15:03:37;;;;;;;6.37;1.30;;;;;;;24.91;31.70;98329.25;4503496;31;20431;-87